Terminal Aerodrome Forecast
Issued by NWS

Home | Current Version | Previous Version | Graphics & Text | Print | Product List | Glossary On
Versions: 1 2 3 4 5 6 7 8 9 10 11 12 13 14 15
000
FTUS43 KGRB 161728
TAFATW
TAF
KATW 161728Z 1618/1718 34007KT P6SM SCT025 SCT100
     FM162000 34007KT P6SM FEW025 SCT040
     FM170100 29006KT P6SM SCT110
     FM170800 26008KT P6SM BKN090
     FM171200 24012KT P6SM BKN070
     FM171600 25015G24KT P6SM SCT250=

USA.gov is the U.S. government's official web portal to all federal, state and local government web resources and services.